sensor_id;sensor_type;location;lat;lon;timestamp;P1;durP1;ratioP1;P2;durP2;ratioP2
10719;SDS011;5411;58.386;15.560;2023-08-20T00:02:21;4.07;;;3.70;;
10719;SDS011;5411;58.386;15.560;2023-08-20T00:04:55;3.80;;;3.50;;
10719;SDS011;5411;58.386;15.560;2023-08-20T00:07:31;4.07;;;3.67;;
10719;SDS011;5411;58.386;15.560;2023-08-20T00:10:04;4.50;;;3.63;;
10719;SDS011;5411;58.386;15.560;2023-08-20T00:12:46;4.23;;;3.83;;
10719;SDS011;5411;58.386;15.560;2023-08-20T00:15:19;4.03;;;3.73;;
10719;SDS011;5411;58.386;15.560;2023-08-20T00:17:55;4.17;;;3.80;;
10719;SDS011;5411;58.386;15.560;2023-08-20T00:20:32;4.17;;;3.77;;
10719;SDS011;5411;58.386;15.560;2023-08-20T00:23:03;4.10;;;3.63;;
10719;SDS011;5411;58.386;15.560;2023-08-20T00:25:35;4.53;;;3.70;;
10719;SDS011;5411;58.386;15.560;2023-08-20T00:28:08;4.27;;;3.87;;
10719;SDS011;5411;58.386;15.560;2023-08-20T00:30:39;4.00;;;3.60;;
10719;SDS011;5411;58.386;15.560;2023-08-20T00:33:08;4.13;;;3.83;;
10719;SDS011;5411;58.386;15.560;2023-08-20T00:35:41;4.10;;;3.70;;
10719;SDS011;5411;58.386;15.560;2023-08-20T00:38:10;3.83;;;3.23;;
10719;SDS011;5411;58.386;15.560;2023-08-20T00:40:44;13.27;;;4.13;;
10719;SDS011;5411;58.386;15.560;2023-08-20T00:43:18;4.20;;;3.80;;
10719;SDS011;5411;58.386;15.560;2023-08-20T00:45:50;3.73;;;3.43;;
10719;SDS011;5411;58.386;15.560;2023-08-20T00:48:20;4.23;;;3.83;;
10719;SDS011;5411;58.386;15.560;2023-08-20T00:50:53;3.90;;;3.47;;
10719;SDS011;5411;58.386;15.560;2023-08-20T00:53:35;4.30;;;3.90;;
10719;SDS011;5411;58.386;15.560;2023-08-20T00:56:05;4.17;;;3.77;;
10719;SDS011;5411;58.386;15.560;2023-08-20T00:58:35;4.00;;;3.60;;
10719;SDS011;5411;58.386;15.560;2023-08-20T01:01:21;4.23;;;3.83;;
10719;SDS011;5411;58.386;15.560;2023-08-20T01:03:55;3.77;;;3.47;;
10719;SDS011;5411;58.386;15.560;2023-08-20T01:06:30;4.30;;;3.87;;
10719;SDS011;5411;58.386;15.560;2023-08-20T01:09:11;3.87;;;3.53;;
10719;SDS011;5411;58.386;15.560;2023-08-20T01:11:56;3.53;;;3.17;;
10719;SDS011;5411;58.386;15.560;2023-08-20T01:14:31;3.53;;;3.23;;
10719;SDS011;5411;58.386;15.560;2023-08-20T01:17:01;4.17;;;3.77;;
10719;SDS011;5411;58.386;15.560;2023-08-20T01:19:32;3.53;;;3.23;;
10719;SDS011;5411;58.386;15.560;2023-08-20T01:25:32;4.30;;;3.90;;
10719;SDS011;5411;58.386;15.560;2023-08-20T01:31:22;4.20;;;3.80;;
10719;SDS011;5411;58.386;15.560;2023-08-20T01:33:57;5.17;;;3.70;;
10719;SDS011;5411;58.386;15.560;2023-08-20T01:36:32;5.93;;;3.97;;
10719;SDS011;5411;58.386;15.560;2023-08-20T01:39:06;4.40;;;4.00;;
10719;SDS011;5411;58.386;15.560;2023-08-20T01:41:39;4.57;;;4.10;;
10719;SDS011;5411;58.386;15.560;2023-08-20T01:44:22;5.17;;;4.07;;
10719;SDS011;5411;58.386;15.560;2023-08-20T01:46:57;4.23;;;3.83;;
10719;SDS011;5411;58.386;15.560;2023-08-20T01:49:31;4.60;;;3.77;;
10719;SDS011;5411;58.386;15.560;2023-08-20T01:52:05;5.03;;;4.40;;
10719;SDS011;5411;58.386;15.560;2023-08-20T01:54:35;4.57;;;3.93;;
10719;SDS011;5411;58.386;15.560;2023-08-20T01:57:20;5.10;;;4.47;;
10719;SDS011;5411;58.386;15.560;2023-08-20T01:59:52;4.93;;;4.30;;
10719;SDS011;5411;58.386;15.560;2023-08-20T02:02:25;4.90;;;4.40;;
10719;SDS011;5411;58.386;15.560;2023-08-20T02:04:58;4.47;;;4.07;;
10719;SDS011;5411;58.386;15.560;2023-08-20T02:07:40;4.67;;;4.27;;
10719;SDS011;5411;58.386;15.560;2023-08-20T02:10:12;4.57;;;4.00;;
10719;SDS011;5411;58.386;15.560;2023-08-20T02:12:53;5.93;;;4.23;;
10719;SDS011;5411;58.386;15.560;2023-08-20T02:15:32;4.83;;;3.80;;
10719;SDS011;5411;58.386;15.560;2023-08-20T02:18:11;4.53;;;4.07;;
10719;SDS011;5411;58.386;15.560;2023-08-20T02:20:43;4.60;;;3.93;;
10719;SDS011;5411;58.386;15.560;2023-08-20T02:23:14;4.30;;;3.67;;
10719;SDS011;5411;58.386;15.560;2023-08-20T02:25:51;4.67;;;4.00;;
10719;SDS011;5411;58.386;15.560;2023-08-20T02:28:25;7.17;;;3.90;;
10719;SDS011;5411;58.386;15.560;2023-08-20T02:30:55;5.20;;;3.63;;
10719;SDS011;5411;58.386;15.560;2023-08-20T02:33:30;4.40;;;4.00;;
10719;SDS011;5411;58.386;15.560;2023-08-20T02:36:13;3.47;;;3.17;;
10719;SDS011;5411;58.386;15.560;2023-08-20T02:38:56;5.47;;;3.87;;
10719;SDS011;5411;58.386;15.560;2023-08-20T02:41:31;4.77;;;3.83;;
10719;SDS011;5411;58.386;15.560;2023-08-20T02:44:00;6.60;;;3.53;;
10719;SDS011;5411;58.386;15.560;2023-08-20T02:46:47;3.80;;;3.40;;
10719;SDS011;5411;58.386;15.560;2023-08-20T02:49:21;4.20;;;3.70;;
10719;SDS011;5411;58.386;15.560;2023-08-20T02:51:53;4.63;;;4.03;;
10719;SDS011;5411;58.386;15.560;2023-08-20T02:54:23;4.00;;;3.57;;
10719;SDS011;5411;58.386;15.560;2023-08-20T02:57:08;4.07;;;3.67;;
10719;SDS011;5411;58.386;15.560;2023-08-20T02:59:53;3.70;;;3.40;;
10719;SDS011;5411;58.386;15.560;2023-08-20T03:02:27;3.63;;;3.33;;
10719;SDS011;5411;58.386;15.560;2023-08-20T03:04:59;5.10;;;3.57;;
10719;SDS011;5411;58.386;15.560;2023-08-20T03:07:32;3.67;;;3.37;;
10719;SDS011;5411;58.386;15.560;2023-08-20T03:10:02;3.07;;;2.77;;
10719;SDS011;5411;58.386;15.560;2023-08-20T03:12:40;3.73;;;3.40;;
10719;SDS011;5411;58.386;15.560;2023-08-20T03:15:11;3.90;;;3.33;;
10719;SDS011;5411;58.386;15.560;2023-08-20T03:17:43;3.37;;;2.83;;
10719;SDS011;5411;58.386;15.560;2023-08-20T03:20:14;3.77;;;2.90;;
10719;SDS011;5411;58.386;15.560;2023-08-20T03:22:45;3.57;;;3.10;;
10719;SDS011;5411;58.386;15.560;2023-08-20T03:25:15;4.87;;;3.20;;
10719;SDS011;5411;58.386;15.560;2023-08-20T03:27:51;4.17;;;3.00;;
10719;SDS011;5411;58.386;15.560;2023-08-20T03:30:20;3.43;;;3.13;;
10719;SDS011;5411;58.386;15.560;2023-08-20T03:32:55;3.10;;;2.80;;
10719;SDS011;5411;58.386;15.560;2023-08-20T03:35:25;2.97;;;2.77;;
10719;SDS011;5411;58.386;15.560;2023-08-20T03:37:55;3.63;;;3.33;;
10719;SDS011;5411;58.386;15.560;2023-08-20T03:40:26;3.83;;;2.80;;
10719;SDS011;5411;58.386;15.560;2023-08-20T03:42:56;3.67;;;3.13;;
10719;SDS011;5411;58.386;15.560;2023-08-20T03:45:28;4.33;;;3.20;;
10719;SDS011;5411;58.386;15.560;2023-08-20T03:48:00;3.33;;;2.87;;
10719;SDS011;5411;58.386;15.560;2023-08-20T03:50:29;3.40;;;3.10;;
10719;SDS011;5411;58.386;15.560;2023-08-20T03:52:58;3.83;;;2.87;;
10719;SDS011;5411;58.386;15.560;2023-08-20T03:55:27;3.13;;;2.83;;
10719;SDS011;5411;58.386;15.560;2023-08-20T03:57:56;3.37;;;3.07;;
10719;SDS011;5411;58.386;15.560;2023-08-20T04:00:26;3.33;;;3.03;;
10719;SDS011;5411;58.386;15.560;2023-08-20T04:02:56;3.30;;;3.00;;
10719;SDS011;5411;58.386;15.560;2023-08-20T04:05:34;3.30;;;3.00;;
10719;SDS011;5411;58.386;15.560;2023-08-20T04:08:05;3.17;;;2.87;;
10719;SDS011;5411;58.386;15.560;2023-08-20T04:10:44;4.33;;;3.43;;
10719;SDS011;5411;58.386;15.560;2023-08-20T04:13:14;3.80;;;3.47;;
10719;SDS011;5411;58.386;15.560;2023-08-20T04:15:46;3.83;;;3.07;;
10719;SDS011;5411;58.386;15.560;2023-08-20T04:18:18;3.57;;;3.27;;
10719;SDS011;5411;58.386;15.560;2023-08-20T04:20:56;3.33;;;3.03;;
10719;SDS011;5411;58.386;15.560;2023-08-20T04:23:25;3.37;;;3.07;;
10719;SDS011;5411;58.386;15.560;2023-08-20T04:25:54;3.53;;;3.23;;
10719;SDS011;5411;58.386;15.560;2023-08-20T04:28:24;3.17;;;2.90;;
10719;SDS011;5411;58.386;15.560;2023-08-20T04:30:55;3.03;;;2.83;;
10719;SDS011;5411;58.386;15.560;2023-08-20T04:33:27;3.13;;;2.93;;
10719;SDS011;5411;58.386;15.560;2023-08-20T04:35:59;2.93;;;2.73;;
10719;SDS011;5411;58.386;15.560;2023-08-20T04:38:29;2.77;;;2.57;;
10719;SDS011;5411;58.386;15.560;2023-08-20T04:40:59;2.90;;;2.70;;
10719;SDS011;5411;58.386;15.560;2023-08-20T04:43:29;3.50;;;2.80;;
10719;SDS011;5411;58.386;15.560;2023-08-20T04:45:57;3.20;;;2.90;;
10719;SDS011;5411;58.386;15.560;2023-08-20T04:48:27;4.00;;;2.97;;
10719;SDS011;5411;58.386;15.560;2023-08-20T04:50:59;2.93;;;2.63;;
10719;SDS011;5411;58.386;15.560;2023-08-20T04:53:31;3.23;;;2.93;;
10719;SDS011;5411;58.386;15.560;2023-08-20T04:56:00;3.00;;;2.70;;
10719;SDS011;5411;58.386;15.560;2023-08-20T04:58:33;3.30;;;3.00;;
10719;SDS011;5411;58.386;15.560;2023-08-20T05:01:03;4.13;;;2.90;;
10719;SDS011;5411;58.386;15.560;2023-08-20T05:03:33;3.33;;;3.03;;
10719;SDS011;5411;58.386;15.560;2023-08-20T05:06:06;2.90;;;2.60;;
10719;SDS011;5411;58.386;15.560;2023-08-20T05:08:37;3.10;;;2.80;;
10719;SDS011;5411;58.386;15.560;2023-08-20T05:11:06;3.57;;;2.93;;
10719;SDS011;5411;58.386;15.560;2023-08-20T05:13:35;3.53;;;2.90;;
10719;SDS011;5411;58.386;15.560;2023-08-20T05:16:04;3.30;;;3.00;;
10719;SDS011;5411;58.386;15.560;2023-08-20T05:18:33;4.03;;;3.40;;
10719;SDS011;5411;58.386;15.560;2023-08-20T05:21:06;3.50;;;3.20;;
10719;SDS011;5411;58.386;15.560;2023-08-20T05:23:39;4.17;;;3.13;;
10719;SDS011;5411;58.386;15.560;2023-08-20T05:26:09;4.53;;;3.30;;
10719;SDS011;5411;58.386;15.560;2023-08-20T05:28:39;3.10;;;2.90;;
10719;SDS011;5411;58.386;15.560;2023-08-20T05:31:08;3.40;;;2.70;;
10719;SDS011;5411;58.386;15.560;2023-08-20T05:33:37;3.67;;;3.10;;
10719;SDS011;5411;58.386;15.560;2023-08-20T05:36:11;3.90;;;2.57;;
10719;SDS011;5411;58.386;15.560;2023-08-20T05:38:40;2.73;;;2.53;;
10719;SDS011;5411;58.386;15.560;2023-08-20T05:41:10;3.43;;;2.87;;
10719;SDS011;5411;58.386;15.560;2023-08-20T05:43:40;2.80;;;2.60;;
10719;SDS011;5411;58.386;15.560;2023-08-20T05:46:11;3.10;;;2.63;;
10719;SDS011;5411;58.386;15.560;2023-08-20T05:48:44;2.80;;;2.60;;
10719;SDS011;5411;58.386;15.560;2023-08-20T05:51:16;3.00;;;2.70;;
10719;SDS011;5411;58.386;15.560;2023-08-20T05:53:48;2.60;;;2.40;;
10719;SDS011;5411;58.386;15.560;2023-08-20T05:56:18;2.80;;;2.60;;
10719;SDS011;5411;58.386;15.560;2023-08-20T05:58:52;2.63;;;2.43;;
10719;SDS011;5411;58.386;15.560;2023-08-20T06:01:22;2.70;;;2.50;;
10719;SDS011;5411;58.386;15.560;2023-08-20T06:03:51;2.63;;;2.43;;
10719;SDS011;5411;58.386;15.560;2023-08-20T06:06:22;2.50;;;2.30;;
10719;SDS011;5411;58.386;15.560;2023-08-20T06:08:51;2.40;;;2.20;;
10719;SDS011;5411;58.386;15.560;2023-08-20T06:11:34;2.30;;;2.10;;
10719;SDS011;5411;58.386;15.560;2023-08-20T06:14:03;2.43;;;2.23;;
10719;SDS011;5411;58.386;15.560;2023-08-20T06:16:40;3.20;;;2.40;;
10719;SDS011;5411;58.386;15.560;2023-08-20T06:19:09;2.60;;;2.40;;
10719;SDS011;5411;58.386;15.560;2023-08-20T06:21:40;3.07;;;2.40;;
10719;SDS011;5411;58.386;15.560;2023-08-20T06:24:11;2.60;;;2.13;;
10719;SDS011;5411;58.386;15.560;2023-08-20T06:26:40;3.60;;;2.67;;
10719;SDS011;5411;58.386;15.560;2023-08-20T06:29:10;2.50;;;2.30;;
10719;SDS011;5411;58.386;15.560;2023-08-20T06:31:48;2.73;;;2.53;;
10719;SDS011;5411;58.386;15.560;2023-08-20T06:34:18;2.50;;;2.30;;
10719;SDS011;5411;58.386;15.560;2023-08-20T06:36:55;2.57;;;2.37;;
10719;SDS011;5411;58.386;15.560;2023-08-20T06:39:28;3.17;;;2.97;;
10719;SDS011;5411;58.386;15.560;2023-08-20T06:41:58;4.67;;;2.60;;
10719;SDS011;5411;58.386;15.560;2023-08-20T06:44:27;3.20;;;2.60;;
10719;SDS011;5411;58.386;15.560;2023-08-20T06:46:57;4.07;;;2.80;;
10719;SDS011;5411;58.386;15.560;2023-08-20T06:49:30;2.40;;;2.20;;
10719;SDS011;5411;58.386;15.560;2023-08-20T06:52:00;3.00;;;2.80;;
10719;SDS011;5411;58.386;15.560;2023-08-20T06:54:29;2.43;;;2.23;;
10719;SDS011;5411;58.386;15.560;2023-08-20T06:56:58;3.03;;;2.73;;
10719;SDS011;5411;58.386;15.560;2023-08-20T06:59:26;2.47;;;2.27;;
10719;SDS011;5411;58.386;15.560;2023-08-20T07:01:55;2.70;;;2.50;;
10719;SDS011;5411;58.386;15.560;2023-08-20T07:04:24;2.60;;;2.40;;
10719;SDS011;5411;58.386;15.560;2023-08-20T07:06:52;3.20;;;2.50;;
10719;SDS011;5411;58.386;15.560;2023-08-20T07:09:23;2.67;;;2.47;;
10719;SDS011;5411;58.386;15.560;2023-08-20T07:11:53;2.73;;;2.27;;
10719;SDS011;5411;58.386;15.560;2023-08-20T07:14:24;2.57;;;2.30;;
10719;SDS011;5411;58.386;15.560;2023-08-20T07:16:55;3.27;;;2.47;;
10719;SDS011;5411;58.386;15.560;2023-08-20T07:19:31;2.77;;;2.57;;
10719;SDS011;5411;58.386;15.560;2023-08-20T07:22:02;3.17;;;2.97;;
10719;SDS011;5411;58.386;15.560;2023-08-20T07:24:35;2.73;;;2.50;;
10719;SDS011;5411;58.386;15.560;2023-08-20T07:27:03;3.90;;;2.80;;
10719;SDS011;5411;58.386;15.560;2023-08-20T07:29:40;3.57;;;3.20;;
10719;SDS011;5411;58.386;15.560;2023-08-20T07:32:11;4.07;;;3.10;;
10719;SDS011;5411;58.386;15.560;2023-08-20T07:34:41;3.30;;;3.00;;
10719;SDS011;5411;58.386;15.560;2023-08-20T07:37:13;3.70;;;3.40;;
10719;SDS011;5411;58.386;15.560;2023-08-20T07:39:43;4.63;;;3.60;;
10719;SDS011;5411;58.386;15.560;2023-08-20T07:42:14;3.70;;;3.33;;
10719;SDS011;5411;58.386;15.560;2023-08-20T07:44:44;4.03;;;3.60;;
10719;SDS011;5411;58.386;15.560;2023-08-20T07:47:13;5.07;;;4.60;;
10719;SDS011;5411;58.386;15.560;2023-08-20T07:49:42;5.30;;;3.97;;
10719;SDS011;5411;58.386;15.560;2023-08-20T07:52:14;4.63;;;4.17;;
10719;SDS011;5411;58.386;15.560;2023-08-20T07:54:44;5.03;;;3.90;;
10719;SDS011;5411;58.386;15.560;2023-08-20T07:57:13;4.37;;;3.77;;
10719;SDS011;5411;58.386;15.560;2023-08-20T07:59:44;3.70;;;3.27;;
10719;SDS011;5411;58.386;15.560;2023-08-20T08:02:15;3.80;;;3.30;;
10719;SDS011;5411;58.386;15.560;2023-08-20T08:04:47;4.00;;;3.60;;
10719;SDS011;5411;58.386;15.560;2023-08-20T08:07:18;3.50;;;2.90;;
10719;SDS011;5411;58.386;15.560;2023-08-20T08:09:54;3.80;;;3.40;;
10719;SDS011;5411;58.386;15.560;2023-08-20T08:12:23;3.27;;;2.97;;
10719;SDS011;5411;58.386;15.560;2023-08-20T08:15:00;4.00;;;3.50;;
10719;SDS011;5411;58.386;15.560;2023-08-20T08:17:30;3.70;;;3.40;;
10719;SDS011;5411;58.386;15.560;2023-08-20T08:20:04;3.27;;;2.80;;
10719;SDS011;5411;58.386;15.560;2023-08-20T08:22:37;4.87;;;3.80;;
10719;SDS011;5411;58.386;15.560;2023-08-20T08:25:07;3.73;;;3.43;;
10719;SDS011;5411;58.386;15.560;2023-08-20T08:27:37;3.60;;;3.30;;
10719;SDS011;5411;58.386;15.560;2023-08-20T08:30:25;3.83;;;3.43;;
10719;SDS011;5411;58.386;15.560;2023-08-20T08:32:56;3.43;;;3.13;;
10719;SDS011;5411;58.386;15.560;2023-08-20T08:35:24;3.73;;;3.40;;
10719;SDS011;5411;58.386;15.560;2023-08-20T08:37:53;3.37;;;3.07;;
10719;SDS011;5411;58.386;15.560;2023-08-20T08:40:27;3.70;;;3.17;;
10719;SDS011;5411;58.386;15.560;2023-08-20T08:42:57;4.07;;;2.70;;
10719;SDS011;5411;58.386;15.560;2023-08-20T08:45:28;3.87;;;3.43;;
10719;SDS011;5411;58.386;15.560;2023-08-20T08:48:02;2.90;;;2.63;;
10719;SDS011;5411;58.386;15.560;2023-08-20T08:50:34;4.63;;;2.90;;
10719;SDS011;5411;58.386;15.560;2023-08-20T08:53:03;3.03;;;2.83;;
10719;SDS011;5411;58.386;15.560;2023-08-20T08:55:35;4.30;;;3.00;;
10719;SDS011;5411;58.386;15.560;2023-08-20T08:58:09;3.90;;;3.23;;
10719;SDS011;5411;58.386;15.560;2023-08-20T09:00:38;4.13;;;3.63;;
10719;SDS011;5411;58.386;15.560;2023-08-20T09:03:10;3.20;;;2.90;;
10719;SDS011;5411;58.386;15.560;2023-08-20T09:05:53;3.33;;;3.03;;
10719;SDS011;5411;58.386;15.560;2023-08-20T09:08:26;3.00;;;2.70;;
10719;SDS011;5411;58.386;15.560;2023-08-20T09:11:02;2.80;;;2.53;;
10719;SDS011;5411;58.386;15.560;2023-08-20T09:13:38;3.23;;;2.90;;
10719;SDS011;5411;58.386;15.560;2023-08-20T09:16:11;2.97;;;2.50;;
10719;SDS011;5411;58.386;15.560;2023-08-20T09:18:40;2.63;;;2.43;;
10719;SDS011;5411;58.386;15.560;2023-08-20T09:21:10;4.60;;;2.70;;
10719;SDS011;5411;58.386;15.560;2023-08-20T09:23:40;2.73;;;2.33;;
10719;SDS011;5411;58.386;15.560;2023-08-20T09:26:18;3.23;;;2.30;;
10719;SDS011;5411;58.386;15.560;2023-08-20T09:28:58;3.20;;;2.50;;
10719;SDS011;5411;58.386;15.560;2023-08-20T09:31:38;4.00;;;2.63;;
10719;SDS011;5411;58.386;15.560;2023-08-20T09:34:12;2.77;;;2.57;;
10719;SDS011;5411;58.386;15.560;2023-08-20T09:36:42;2.70;;;2.50;;
10719;SDS011;5411;58.386;15.560;2023-08-20T09:39:12;2.67;;;2.47;;
10719;SDS011;5411;58.386;15.560;2023-08-20T09:41:44;3.63;;;2.83;;
10719;SDS011;5411;58.386;15.560;2023-08-20T09:44:25;3.83;;;2.50;;
10719;SDS011;5411;58.386;15.560;2023-08-20T09:47:01;2.23;;;2.03;;
10719;SDS011;5411;58.386;15.560;2023-08-20T09:49:32;3.27;;;2.40;;
10719;SDS011;5411;58.386;15.560;2023-08-20T09:52:10;3.30;;;2.60;;
10719;SDS011;5411;58.386;15.560;2023-08-20T09:54:43;2.60;;;2.40;;
10719;SDS011;5411;58.386;15.560;2023-08-20T09:57:32;2.50;;;2.30;;
10719;SDS011;5411;58.386;15.560;2023-08-20T10:00:04;4.13;;;2.53;;
10719;SDS011;5411;58.386;15.560;2023-08-20T10:02:36;2.57;;;2.37;;
10719;SDS011;5411;58.386;15.560;2023-08-20T10:05:22;2.50;;;2.30;;
10719;SDS011;5411;58.386;15.560;2023-08-20T10:07:58;2.50;;;2.23;;
10719;SDS011;5411;58.386;15.560;2023-08-20T10:10:46;2.13;;;2.03;;
10719;SDS011;5411;58.386;15.560;2023-08-20T10:13:34;2.40;;;2.20;;
10719;SDS011;5411;58.386;15.560;2023-08-20T10:16:04;2.93;;;2.30;;
10719;SDS011;5411;58.386;15.560;2023-08-20T10:18:35;2.40;;;2.20;;
10719;SDS011;5411;58.386;15.560;2023-08-20T10:21:08;2.83;;;2.50;;
10719;SDS011;5411;58.386;15.560;2023-08-20T10:23:40;2.73;;;2.40;;
10719;SDS011;5411;58.386;15.560;2023-08-20T10:26:20;2.80;;;2.50;;
10719;SDS011;5411;58.386;15.560;2023-08-20T10:29:09;3.40;;;2.00;;
10719;SDS011;5411;58.386;15.560;2023-08-20T10:32:08;2.50;;;2.30;;
10719;SDS011;5411;58.386;15.560;2023-08-20T10:34:49;2.83;;;2.30;;
10719;SDS011;5411;58.386;15.560;2023-08-20T10:37:28;2.17;;;2.00;;
10719;SDS011;5411;58.386;15.560;2023-08-20T10:39:59;2.43;;;2.23;;
10719;SDS011;5411;58.386;15.560;2023-08-20T10:42:30;2.37;;;1.90;;
10719;SDS011;5411;58.386;15.560;2023-08-20T10:45:01;2.50;;;1.90;;
10719;SDS011;5411;58.386;15.560;2023-08-20T10:47:42;2.03;;;1.83;;
10719;SDS011;5411;58.386;15.560;2023-08-20T10:50:15;2.40;;;2.07;;
10719;SDS011;5411;58.386;15.560;2023-08-20T10:52:47;1.77;;;1.67;;
10719;SDS011;5411;58.386;15.560;2023-08-20T10:55:21;2.03;;;1.93;;
10719;SDS011;5411;58.386;15.560;2023-08-20T10:57:57;1.80;;;1.70;;
10719;SDS011;5411;58.386;15.560;2023-08-20T11:00:30;2.10;;;1.90;;
10719;SDS011;5411;58.386;15.560;2023-08-20T11:03:00;2.10;;;2.00;;
10719;SDS011;5411;58.386;15.560;2023-08-20T11:05:33;2.00;;;1.90;;
10719;SDS011;5411;58.386;15.560;2023-08-20T11:08:05;2.53;;;1.90;;
10719;SDS011;5411;58.386;15.560;2023-08-20T11:10:38;1.47;;;1.37;;
10719;SDS011;5411;58.386;15.560;2023-08-20T11:13:07;2.70;;;1.90;;
10719;SDS011;5411;58.386;15.560;2023-08-20T11:15:37;2.70;;;1.80;;
10719;SDS011;5411;58.386;15.560;2023-08-20T11:18:06;2.07;;;1.90;;
10719;SDS011;5411;58.386;15.560;2023-08-20T11:20:35;2.00;;;1.90;;
10719;SDS011;5411;58.386;15.560;2023-08-20T11:23:05;1.83;;;1.73;;
10719;SDS011;5411;58.386;15.560;2023-08-20T11:25:40;2.03;;;1.90;;
10719;SDS011;5411;58.386;15.560;2023-08-20T11:28:09;2.27;;;2.10;;
10719;SDS011;5411;58.386;15.560;2023-08-20T11:30:45;2.50;;;2.30;;
10719;SDS011;5411;58.386;15.560;2023-08-20T11:33:17;2.67;;;2.20;;
10719;SDS011;5411;58.386;15.560;2023-08-20T11:35:51;1.70;;;1.60;;
10719;SDS011;5411;58.386;15.560;2023-08-20T11:38:23;2.33;;;2.23;;
10719;SDS011;5411;58.386;15.560;2023-08-20T11:40:54;1.93;;;1.73;;
10719;SDS011;5411;58.386;15.560;2023-08-20T11:43:24;1.80;;;1.70;;
10719;SDS011;5411;58.386;15.560;2023-08-20T11:45:53;1.80;;;1.70;;
10719;SDS011;5411;58.386;15.560;2023-08-20T11:48:30;2.13;;;1.80;;
10719;SDS011;5411;58.386;15.560;2023-08-20T11:50:58;2.00;;;1.90;;
10719;SDS011;5411;58.386;15.560;2023-08-20T11:53:26;2.07;;;1.90;;
10719;SDS011;5411;58.386;15.560;2023-08-20T11:55:57;2.10;;;1.90;;
10719;SDS011;5411;58.386;15.560;2023-08-20T11:58:25;2.77;;;2.20;;
10719;SDS011;5411;58.386;15.560;2023-08-20T12:01:06;2.10;;;2.00;;
10719;SDS011;5411;58.386;15.560;2023-08-20T12:03:37;2.53;;;2.33;;
10719;SDS011;5411;58.386;15.560;2023-08-20T12:06:18;2.00;;;1.90;;
10719;SDS011;5411;58.386;15.560;2023-08-20T12:08:49;1.90;;;1.80;;
10719;SDS011;5411;58.386;15.560;2023-08-20T12:11:18;1.70;;;1.60;;
10719;SDS011;5411;58.386;15.560;2023-08-20T12:13:53;2.20;;;2.00;;
10719;SDS011;5411;58.386;15.560;2023-08-20T12:16:23;2.30;;;2.10;;
10719;SDS011;5411;58.386;15.560;2023-08-20T12:18:53;1.70;;;1.60;;
10719;SDS011;5411;58.386;15.560;2023-08-20T12:21:31;2.50;;;2.30;;
10719;SDS011;5411;58.386;15.560;2023-08-20T12:24:02;2.57;;;1.83;;
10719;SDS011;5411;58.386;15.560;2023-08-20T12:26:32;2.10;;;2.00;;
10719;SDS011;5411;58.386;15.560;2023-08-20T12:29:03;1.70;;;1.60;;
10719;SDS011;5411;58.386;15.560;2023-08-20T12:31:40;2.20;;;2.00;;
10719;SDS011;5411;58.386;15.560;2023-08-20T12:34:11;2.57;;;2.37;;
10719;SDS011;5411;58.386;15.560;2023-08-20T12:36:57;2.53;;;1.83;;
10719;SDS011;5411;58.386;15.560;2023-08-20T12:39:28;1.87;;;1.70;;
10719;SDS011;5411;58.386;15.560;2023-08-20T12:41:57;2.10;;;1.90;;
10719;SDS011;5411;58.386;15.560;2023-08-20T12:44:31;2.27;;;2.07;;
10719;SDS011;5411;58.386;15.560;2023-08-20T12:47:04;2.60;;;2.10;;
10719;SDS011;5411;58.386;15.560;2023-08-20T12:49:36;2.23;;;1.97;;
10719;SDS011;5411;58.386;15.560;2023-08-20T12:52:04;3.00;;;2.10;;
10719;SDS011;5411;58.386;15.560;2023-08-20T12:54:34;4.20;;;2.27;;
10719;SDS011;5411;58.386;15.560;2023-08-20T12:57:03;2.37;;;2.00;;
10719;SDS011;5411;58.386;15.560;2023-08-20T12:59:33;2.53;;;2.03;;
10719;SDS011;5411;58.386;15.560;2023-08-20T13:02:08;2.93;;;2.47;;
10719;SDS011;5411;58.386;15.560;2023-08-20T13:04:40;2.80;;;2.20;;
10719;SDS011;5411;58.386;15.560;2023-08-20T13:07:10;2.50;;;2.30;;
10719;SDS011;5411;58.386;15.560;2023-08-20T13:09:45;2.10;;;1.97;;
10719;SDS011;5411;58.386;15.560;2023-08-20T13:12:25;2.50;;;2.30;;
10719;SDS011;5411;58.386;15.560;2023-08-20T13:14:55;2.67;;;2.47;;
10719;SDS011;5411;58.386;15.560;2023-08-20T13:17:28;2.37;;;2.17;;
10719;SDS011;5411;58.386;15.560;2023-08-20T13:20:00;5.30;;;2.40;;
10719;SDS011;5411;58.386;15.560;2023-08-20T13:22:33;2.67;;;2.40;;
10719;SDS011;5411;58.386;15.560;2023-08-20T13:25:05;2.77;;;2.50;;
10719;SDS011;5411;58.386;15.560;2023-08-20T13:27:38;2.90;;;2.70;;
10719;SDS011;5411;58.386;15.560;2023-08-20T13:30:08;2.53;;;2.33;;
10719;SDS011;5411;58.386;15.560;2023-08-20T13:32:39;2.73;;;2.53;;
10719;SDS011;5411;58.386;15.560;2023-08-20T13:35:07;2.63;;;2.43;;
10719;SDS011;5411;58.386;15.560;2023-08-20T13:37:38;2.70;;;2.37;;
10719;SDS011;5411;58.386;15.560;2023-08-20T13:40:10;3.47;;;2.77;;
10719;SDS011;5411;58.386;15.560;2023-08-20T13:42:42;3.03;;;2.33;;
10719;SDS011;5411;58.386;15.560;2023-08-20T13:45:14;2.70;;;2.50;;
10719;SDS011;5411;58.386;15.560;2023-08-20T13:47:48;3.37;;;2.77;;
10719;SDS011;5411;58.386;15.560;2023-08-20T13:50:17;2.73;;;2.53;;
10719;SDS011;5411;58.386;15.560;2023-08-20T13:52:46;4.40;;;3.00;;
10719;SDS011;5411;58.386;15.560;2023-08-20T13:55:17;2.80;;;2.60;;
10719;SDS011;5411;58.386;15.560;2023-08-20T13:57:48;3.10;;;2.77;;
10719;SDS011;5411;58.386;15.560;2023-08-20T14:00:17;3.20;;;2.73;;
10719;SDS011;5411;58.386;15.560;2023-08-20T14:02:49;3.10;;;2.90;;
10719;SDS011;5411;58.386;15.560;2023-08-20T14:05:22;4.43;;;2.83;;
10719;SDS011;5411;58.386;15.560;2023-08-20T14:07:51;3.23;;;2.93;;
10719;SDS011;5411;58.386;15.560;2023-08-20T14:10:19;3.37;;;3.07;;
10719;SDS011;5411;58.386;15.560;2023-08-20T14:12:53;3.13;;;2.80;;
10719;SDS011;5411;58.386;15.560;2023-08-20T14:15:23;3.40;;;3.10;;
10719;SDS011;5411;58.386;15.560;2023-08-20T14:20:36;4.37;;;3.20;;
10719;SDS011;5411;58.386;15.560;2023-08-20T14:23:06;3.47;;;3.00;;
10719;SDS011;5411;58.386;15.560;2023-08-20T14:25:40;3.00;;;2.70;;
10719;SDS011;5411;58.386;15.560;2023-08-20T14:28:09;4.40;;;3.27;;
10719;SDS011;5411;58.386;15.560;2023-08-20T14:30:38;2.90;;;2.70;;
10719;SDS011;5411;58.386;15.560;2023-08-20T14:33:10;3.57;;;3.27;;
10719;SDS011;5411;58.386;15.560;2023-08-20T14:35:39;4.70;;;3.43;;
10719;SDS011;5411;58.386;15.560;2023-08-20T14:38:08;3.50;;;3.20;;
10719;SDS011;5411;58.386;15.560;2023-08-20T14:40:39;4.33;;;3.03;;
10719;SDS011;5411;58.386;15.560;2023-08-20T14:43:08;3.20;;;2.93;;
10719;SDS011;5411;58.386;15.560;2023-08-20T14:45:37;3.60;;;3.27;;
10719;SDS011;5411;58.386;15.560;2023-08-20T14:48:09;3.47;;;3.17;;
10719;SDS011;5411;58.386;15.560;2023-08-20T14:50:42;4.13;;;3.30;;
10719;SDS011;5411;58.386;15.560;2023-08-20T14:53:11;3.60;;;3.00;;
10719;SDS011;5411;58.386;15.560;2023-08-20T14:55:40;4.00;;;3.33;;
10719;SDS011;5411;58.386;15.560;2023-08-20T14:58:10;3.50;;;3.20;;
10719;SDS011;5411;58.386;15.560;2023-08-20T15:00:39;3.37;;;3.10;;
10719;SDS011;5411;58.386;15.560;2023-08-20T15:03:11;3.87;;;3.00;;
10719;SDS011;5411;58.386;15.560;2023-08-20T15:05:39;3.93;;;3.63;;
10719;SDS011;5411;58.386;15.560;2023-08-20T15:08:08;3.40;;;3.10;;
10719;SDS011;5411;58.386;15.560;2023-08-20T15:10:37;3.17;;;2.77;;
10719;SDS011;5411;58.386;15.560;2023-08-20T15:13:08;4.83;;;3.60;;
10719;SDS011;5411;58.386;15.560;2023-08-20T15:15:36;3.53;;;3.13;;
10719;SDS011;5411;58.386;15.560;2023-08-20T15:18:05;4.27;;;3.20;;
10719;SDS011;5411;58.386;15.560;2023-08-20T15:20:36;3.80;;;3.20;;
10719;SDS011;5411;58.386;15.560;2023-08-20T15:23:06;4.30;;;3.50;;
10719;SDS011;5411;58.386;15.560;2023-08-20T15:25:38;3.63;;;3.27;;
10719;SDS011;5411;58.386;15.560;2023-08-20T15:28:09;3.70;;;3.40;;
10719;SDS011;5411;58.386;15.560;2023-08-20T15:30:38;4.47;;;3.43;;